PWSweather.com
Personal Weather Stations
Station Observations
BZA01
Southern Palatinate, Bad BergzabernDE 76887

Southern PalatinateBad BergzabernDE 76887

Lat: 49.096, Lon: 8

Elevation: 640

Station Type: Davis VP2+

Latest ConditionsUpdated 2:47:02 PM GMT+01:01 Sunday, Jun 16, 2019
Currently Today's Max Today's Min Today's Average
Temperature 73.9°F23.3°C 75.0°F23.9°C 58.6°F14.8°C 64.6°F18.1°C
Dew Point 54.1°F12.3°C 60.4°F15.8°C 52.5°F11.4°C 57.2°F14.0°C
Winds 2.9 mph SW4.7 kmh SW 6.9 mph -11.1 kmh - - 2.6 mph 4.2 kmh
Wind Gusts 2.0 mph3.2 kmh 13.0 mph20.9 kmh - -
Humidity 50% 95% 47% 79%
Pressure 30.13 in1020.3 mb 30.15 in1021.0 mb 30.04 in1017.3 mb -
Precipitation - 0.38 in9.7 mm - -
Hour Temp Dew Point Humidity Winds Wind Gusts Pressure Precip Precip Rate Daily Precip Total
02:47 PM 73.9°F23.3°C 54.1°F12.3°C 50% 2.9 mph SW4.7 kmh SW 2.0 mph3.2 kmh 30.13 in1020.3 mb - 0.00 in0.0 mm 0.38 in9.7 mm
02:42 PM 74.8°F23.8°C 53.2°F11.8°C 47% 2.9 mph W4.7 kmh W 2.0 mph3.2 kmh 30.13 in1020.3 mb - 0.00 in0.0 mm 0.38 in9.7 mm
02:37 PM 74.8°F23.8°C 53.8°F12.1°C 48% 2.9 mph N4.7 kmh N 4.0 mph6.4 kmh 30.13 in1020.3 mb - 0.00 in0.0 mm 0.38 in9.7 mm
02:32 PM 75.0°F23.9°C 54.5°F12.5°C 49% 2.9 mph WSW4.7 kmh WSW 8.1 mph13.0 kmh 30.13 in1020.3 mb - 0.00 in0.0 mm 0.38 in9.7 mm
02:27 PM 74.5°F23.6°C 53.4°F11.9°C 48% 2.9 mph W4.7 kmh W 4.0 mph6.4 kmh 30.13 in1020.3 mb - 0.00 in0.0 mm 0.38 in9.7 mm
02:22 PM 74.1°F23.4°C 52.5°F11.4°C 47% 2.9 mph WSW4.7 kmh WSW 2.0 mph3.2 kmh 30.13 in1020.3 mb - 0.00 in0.0 mm 0.38 in9.7 mm
02:17 PM 73.6°F23.1°C 54.9°F12.7°C 52% 2.9 mph NW4.7 kmh NW 2.9 mph4.7 kmh 30.13 in1020.3 mb - 0.00 in0.0 mm 0.38 in9.7 mm
02:12 PM 73.0°F22.8°C 54.9°F12.7°C 53% 2.9 mph WNW4.7 kmh WNW 2.9 mph4.7 kmh 30.13 in1020.3 mb - 0.00 in0.0 mm 0.38 in9.7 mm
02:07 PM 72.0°F22.2°C 54.0°F12.2°C 53% 2.9 mph W4.7 kmh W 0.9 mph1.4 kmh 30.13 in1020.3 mb - 0.00 in0.0 mm 0.38 in9.7 mm
02:02 PM 71.2°F21.8°C 52.7°F11.5°C 52% 2.9 mph W4.7 kmh W 2.9 mph4.7 kmh 30.13 in1020.3 mb - 0.00 in0.0 mm 0.38 in9.7 mm
01:57 PM 71.6°F22.0°C 54.5°F12.5°C 55% 2.9 mph W4.7 kmh W 2.9 mph4.7 kmh 30.13 in1020.3 mb - 0.00 in0.0 mm 0.38 in9.7 mm
01:52 PM 72.1°F22.3°C 54.5°F12.5°C 54% 2.9 mph W4.7 kmh W 2.0 mph3.2 kmh 30.13 in1020.3 mb - 0.00 in0.0 mm 0.38 in9.7 mm
01:47 PM 72.7°F22.6°C 52.9°F11.6°C 50% 2.9 mph SE4.7 kmh SE 2.9 mph4.7 kmh 30.13 in1020.3 mb - 0.00 in0.0 mm 0.38 in9.7 mm
01:42 PM 72.9°F22.7°C 55.2°F12.9°C 54% 2.0 mph SW3.2 kmh SW 13.0 mph20.9 kmh 30.13 in1020.3 mb - 0.00 in0.0 mm 0.38 in9.7 mm
01:37 PM 73.0°F22.8°C 54.3°F12.4°C 52% 2.0 mph W3.2 kmh W 0.9 mph1.4 kmh 30.13 in1020.3 mb - 0.00 in0.0 mm 0.38 in9.7 mm
01:32 PM 73.2°F22.9°C 55.6°F13.1°C 54% 2.9 mph WNW4.7 kmh WNW -- 30.13 in1020.3 mb - 0.00 in0.0 mm 0.38 in9.7 mm
01:27 PM 73.0°F22.8°C 54.9°F12.7°C 53% 4.9 mph NW7.9 kmh NW 0.9 mph1.4 kmh 30.14 in1020.7 mb - 0.00 in0.0 mm 0.38 in9.7 mm
01:22 PM 73.2°F22.9°C 56.1°F13.4°C 55% 4.0 mph W6.4 kmh W 2.9 mph4.7 kmh 30.14 in1020.7 mb - 0.00 in0.0 mm 0.38 in9.7 mm
01:17 PM 73.0°F22.8°C 57.9°F14.4°C 59% 2.9 mph SW4.7 kmh SW 8.9 mph14.3 kmh 30.13 in1020.3 mb - 0.00 in0.0 mm 0.38 in9.7 mm
01:12 PM 72.1°F22.3°C 56.1°F13.4°C 57% 2.0 mph SW3.2 kmh SW 2.9 mph4.7 kmh 30.14 in1020.7 mb - 0.00 in0.0 mm 0.38 in9.7 mm
01:07 PM 72.0°F22.2°C 56.8°F13.8°C 59% 2.0 mph WSW3.2 kmh WSW 2.9 mph4.7 kmh 30.14 in1020.7 mb - 0.00 in0.0 mm 0.38 in9.7 mm
01:02 PM 71.8°F22.1°C 54.7°F12.6°C 55% 2.9 mph NW4.7 kmh NW 0.9 mph1.4 kmh 30.14 in1020.7 mb - 0.00 in0.0 mm 0.38 in9.7 mm
12:57 PM 71.6°F22.0°C 55.0°F12.8°C 56% 2.9 mph SW4.7 kmh SW 6.0 mph9.7 kmh 30.14 in1020.7 mb - 0.00 in0.0 mm 0.38 in9.7 mm
12:52 PM 70.7°F21.5°C 57.9°F14.4°C 64% 2.9 mph WSW4.7 kmh WSW 2.9 mph4.7 kmh 30.14 in1020.7 mb - 0.00 in0.0 mm 0.38 in9.7 mm
12:47 PM 69.8°F21.0°C 56.1°F13.4°C 62% 2.9 mph SW4.7 kmh SW 2.0 mph3.2 kmh 30.14 in1020.7 mb - 0.00 in0.0 mm 0.38 in9.7 mm
12:42 PM 69.6°F20.9°C 55.9°F13.3°C 62% 2.0 mph SSW3.2 kmh SSW 4.0 mph6.4 kmh 30.14 in1020.7 mb - 0.00 in0.0 mm 0.38 in9.7 mm
12:37 PM 69.6°F20.9°C 55.6°F13.1°C 61% 2.0 mph W3.2 kmh W 2.0 mph3.2 kmh 30.15 in1021.0 mb - 0.00 in0.0 mm 0.38 in9.7 mm
12:32 PM 69.8°F21.0°C 56.1°F13.4°C 62% 2.0 mph W3.2 kmh W 2.0 mph3.2 kmh 30.15 in1021.0 mb - 0.00 in0.0 mm 0.38 in9.7 mm
12:27 PM 69.6°F20.9°C 56.5°F13.6°C 63% 2.0 mph W3.2 kmh W 0.9 mph1.4 kmh 30.15 in1021.0 mb - 0.00 in0.0 mm 0.38 in9.7 mm
12:22 PM 68.5°F20.3°C 57.6°F14.2°C 68% 2.0 mph SW3.2 kmh SW -- 30.15 in1021.0 mb - 0.00 in0.0 mm 0.38 in9.7 mm
12:17 PM 67.8°F19.9°C 56.5°F13.6°C 67% 2.0 mph W3.2 kmh W 2.0 mph3.2 kmh 30.15 in1021.0 mb - 0.00 in0.0 mm 0.38 in9.7 mm
12:12 PM 67.8°F19.9°C 56.5°F13.6°C 67% 2.0 mph W3.2 kmh W 0.9 mph1.4 kmh 30.15 in1021.0 mb - 0.00 in0.0 mm 0.38 in9.7 mm
12:07 PM 67.6°F19.8°C 57.9°F14.4°C 71% 2.0 mph SW3.2 kmh SW 2.9 mph4.7 kmh 30.15 in1021.0 mb - 0.00 in0.0 mm 0.38 in9.7 mm
12:02 PM 67.5°F19.7°C 57.7°F14.3°C 71% 2.0 mph SW3.2 kmh SW 0.9 mph1.4 kmh 30.15 in1021.0 mb - 0.00 in0.0 mm 0.38 in9.7 mm
11:57 AM 67.5°F19.7°C 58.1°F14.5°C 72% 2.9 mph SW4.7 kmh SW 2.9 mph4.7 kmh 30.15 in1021.0 mb - 0.00 in0.0 mm 0.38 in9.7 mm
11:52 AM 67.3°F19.6°C 57.6°F14.2°C 71% 2.0 mph W3.2 kmh W 2.0 mph3.2 kmh 30.15 in1021.0 mb - 0.00 in0.0 mm 0.38 in9.7 mm
11:47 AM 67.1°F19.5°C 57.0°F13.9°C 70% 2.9 mph WSW4.7 kmh WSW 2.9 mph4.7 kmh 30.15 in1021.0 mb - 0.00 in0.0 mm 0.38 in9.7 mm
11:42 AM 67.3°F19.6°C 57.2°F14.0°C 70% 2.9 mph W4.7 kmh W 2.0 mph3.2 kmh 30.15 in1021.0 mb - 0.00 in0.0 mm 0.38 in9.7 mm
11:37 AM 67.5°F19.7°C 57.4°F14.1°C 70% 2.9 mph WSW4.7 kmh WSW 2.9 mph4.7 kmh 30.15 in1021.0 mb - 0.00 in0.0 mm 0.38 in9.7 mm
11:32 AM 67.5°F19.7°C 58.1°F14.5°C 72% 2.0 mph WSW3.2 kmh WSW 0.9 mph1.4 kmh 30.15 in1021.0 mb - 0.00 in0.0 mm 0.38 in9.7 mm
11:27 AM 67.3°F19.6°C 57.6°F14.2°C 71% 2.0 mph W3.2 kmh W 2.0 mph3.2 kmh 30.15 in1021.0 mb - 0.00 in0.0 mm 0.38 in9.7 mm
11:22 AM 67.5°F19.7°C 57.7°F14.3°C 71% 2.0 mph NW3.2 kmh NW 2.0 mph3.2 kmh 30.15 in1021.0 mb - 0.00 in0.0 mm 0.38 in9.7 mm
11:17 AM 67.6°F19.8°C 57.0°F13.9°C 69% 2.9 mph WSW4.7 kmh WSW 2.0 mph3.2 kmh 30.15 in1021.0 mb - 0.00 in0.0 mm 0.38 in9.7 mm
11:12 AM 68.4°F20.2°C 58.3°F14.6°C 70% 2.9 mph SW4.7 kmh SW 4.0 mph6.4 kmh 30.15 in1021.0 mb - 0.00 in0.0 mm 0.38 in9.7 mm
11:07 AM 68.7°F20.4°C 57.7°F14.3°C 68% 2.9 mph SW4.7 kmh SW 2.9 mph4.7 kmh 30.15 in1021.0 mb - 0.00 in0.0 mm 0.38 in9.7 mm
11:02 AM 69.3°F20.7°C 57.9°F14.4°C 67% 2.9 mph SW4.7 kmh SW 2.0 mph3.2 kmh 30.15 in1021.0 mb - 0.00 in0.0 mm 0.38 in9.7 mm
10:57 AM 69.6°F20.9°C 58.1°F14.5°C 67% 2.9 mph SW4.7 kmh SW 4.9 mph7.9 kmh 30.14 in1020.7 mb - 0.00 in0.0 mm 0.38 in9.7 mm
10:52 AM 69.6°F20.9°C 57.7°F14.3°C 66% 2.9 mph SW4.7 kmh SW 2.9 mph4.7 kmh 30.15 in1021.0 mb - 0.00 in0.0 mm 0.38 in9.7 mm
10:47 AM 69.6°F20.9°C 58.6°F14.8°C 68% 2.9 mph WSW4.7 kmh WSW 4.0 mph6.4 kmh 30.15 in1021.0 mb - 0.00 in0.0 mm 0.38 in9.7 mm
10:42 AM 69.3°F20.7°C 58.6°F14.8°C 69% 2.9 mph W4.7 kmh W 4.0 mph6.4 kmh 30.14 in1020.7 mb - 0.00 in0.0 mm 0.38 in9.7 mm
10:37 AM 68.4°F20.2°C 58.6°F14.8°C 71% 2.9 mph SSW4.7 kmh SSW 2.9 mph4.7 kmh 30.14 in1020.7 mb - 0.00 in0.0 mm 0.38 in9.7 mm
10:32 AM 67.6°F19.8°C 58.3°F14.6°C 72% 2.0 mph SSW3.2 kmh SSW 0.9 mph1.4 kmh 30.14 in1020.7 mb - 0.00 in0.0 mm 0.38 in9.7 mm
10:27 AM 67.3°F19.6°C 58.3°F14.6°C 73% 0.9 mph W1.4 kmh W 0.9 mph1.4 kmh 30.15 in1021.0 mb - 0.00 in0.0 mm 0.38 in9.7 mm
10:22 AM 66.9°F19.4°C 57.6°F14.2°C 72% 0.9 mph E1.4 kmh E 2.9 mph4.7 kmh 30.14 in1020.7 mb - 0.00 in0.0 mm 0.38 in9.7 mm
10:17 AM 66.4°F19.1°C 58.3°F14.6°C 75% 2.0 mph NNW3.2 kmh NNW -- 30.14 in1020.7 mb - 0.00 in0.0 mm 0.38 in9.7 mm
10:12 AM 66.0°F18.9°C 58.3°F14.6°C 76% 2.0 mph W3.2 kmh W 2.0 mph3.2 kmh 30.15 in1021.0 mb - 0.00 in0.0 mm 0.38 in9.7 mm
10:07 AM 65.7°F18.7°C 58.6°F14.8°C 78% 2.0 mph SW3.2 kmh SW 0.9 mph1.4 kmh 30.14 in1020.7 mb - 0.00 in0.0 mm 0.38 in9.7 mm
10:02 AM 65.7°F18.7°C 58.3°F14.6°C 77% 2.0 mph NW3.2 kmh NW 2.0 mph3.2 kmh 30.14 in1020.7 mb - 0.00 in0.0 mm 0.38 in9.7 mm
09:57 AM 65.3°F18.5°C 58.3°F14.6°C 78% 2.0 mph W3.2 kmh W 4.0 mph6.4 kmh 30.15 in1021.0 mb - 0.00 in0.0 mm 0.38 in9.7 mm
09:52 AM 64.9°F18.3°C 59.0°F15.0°C 81% 2.0 mph W3.2 kmh W 2.9 mph4.7 kmh 30.15 in1021.0 mb - 0.00 in0.0 mm 0.38 in9.7 mm
09:47 AM 64.9°F18.3°C 58.6°F14.8°C 80% 0.9 mph W1.4 kmh W 2.0 mph3.2 kmh 30.15 in1021.0 mb - 0.00 in0.0 mm 0.38 in9.7 mm
09:42 AM 64.8°F18.2°C 58.8°F14.9°C 81% 2.0 mph W3.2 kmh W 0.9 mph1.4 kmh 30.14 in1020.7 mb - 0.00 in0.0 mm 0.38 in9.7 mm
09:37 AM 64.9°F18.3°C 59.4°F15.2°C 82% 2.0 mph W3.2 kmh W -- 30.14 in1020.7 mb - 0.00 in0.0 mm 0.38 in9.7 mm
09:32 AM 64.8°F18.2°C 59.9°F15.5°C 84% 2.9 mph WNW4.7 kmh WNW 2.9 mph4.7 kmh 30.14 in1020.7 mb - 0.00 in0.0 mm 0.38 in9.7 mm
09:27 AM 64.8°F18.2°C 60.4°F15.8°C 86% 2.9 mph SW4.7 kmh SW 2.0 mph3.2 kmh 30.14 in1020.7 mb - 0.00 in0.0 mm 0.38 in9.7 mm
09:22 AM 64.4°F18.0°C 60.1°F15.6°C 86% 2.9 mph S4.7 kmh S 4.0 mph6.4 kmh 30.14 in1020.7 mb - 0.00 in0.0 mm 0.38 in9.7 mm
09:17 AM 64.0°F17.8°C 60.4°F15.8°C 88% 2.0 mph SW3.2 kmh SW 2.9 mph4.7 kmh 30.14 in1020.7 mb - 0.00 in0.0 mm 0.38 in9.7 mm
09:12 AM 63.7°F17.6°C 60.4°F15.8°C 89% 0.9 mph WSW1.4 kmh WSW 0.9 mph1.4 kmh 30.14 in1020.7 mb - 0.00 in0.0 mm 0.38 in9.7 mm
09:07 AM 63.3°F17.4°C 60.1°F15.6°C 89% 0.9 mph WSW1.4 kmh WSW 0.9 mph1.4 kmh 30.14 in1020.7 mb - 0.00 in0.0 mm 0.38 in9.7 mm
09:02 AM 63.1°F17.3°C 59.9°F15.5°C 89% 0.9 mph WSW1.4 kmh WSW 2.0 mph3.2 kmh 30.14 in1020.7 mb - 0.00 in0.0 mm 0.38 in9.7 mm
08:57 AM 62.8°F17.1°C 59.5°F15.3°C 89% 0.9 mph WSW1.4 kmh WSW 0.9 mph1.4 kmh 30.14 in1020.7 mb - 0.00 in0.0 mm 0.38 in9.7 mm
08:52 AM 62.8°F17.1°C 59.5°F15.3°C 89% 0.9 mph WSW1.4 kmh WSW 2.9 mph4.7 kmh 30.14 in1020.7 mb - 0.00 in0.0 mm 0.38 in9.7 mm
08:47 AM 62.8°F17.1°C 60.4°F15.8°C 92% 0.9 mph W1.4 kmh W 0.9 mph1.4 kmh 30.14 in1020.7 mb - 0.00 in0.0 mm 0.38 in9.7 mm
08:42 AM 62.1°F16.7°C 59.7°F15.4°C 92% 2.0 mph W3.2 kmh W -- 30.14 in1020.7 mb - 0.00 in0.0 mm 0.38 in9.7 mm
08:37 AM 61.7°F16.5°C 59.7°F15.4°C 93% 2.0 mph WSW3.2 kmh WSW 2.0 mph3.2 kmh 30.14 in1020.7 mb - 0.00 in0.0 mm 0.38 in9.7 mm
08:32 AM 61.2°F16.2°C 59.2°F15.1°C 93% 2.0 mph SW3.2 kmh SW 6.0 mph9.7 kmh 30.14 in1020.7 mb - 0.00 in0.0 mm 0.38 in9.7 mm
08:27 AM 60.6°F15.9°C 58.6°F14.8°C 93% 2.0 mph WSW3.2 kmh WSW 2.0 mph3.2 kmh 30.14 in1020.7 mb - 0.00 in0.0 mm 0.38 in9.7 mm
08:22 AM 60.4°F15.8°C 58.6°F14.8°C 94% 2.0 mph W3.2 kmh W 2.9 mph4.7 kmh 30.14 in1020.7 mb - 0.00 in0.0 mm 0.38 in9.7 mm
08:17 AM 60.4°F15.8°C 58.6°F14.8°C 94% 2.0 mph WSW3.2 kmh WSW 2.0 mph3.2 kmh 30.14 in1020.7 mb - 0.00 in0.0 mm 0.38 in9.7 mm
08:12 AM 60.4°F15.8°C 58.6°F14.8°C 94% 2.0 mph SW3.2 kmh SW 2.0 mph3.2 kmh 30.14 in1020.7 mb - 0.00 in0.0 mm 0.38 in9.7 mm
08:07 AM 60.3°F15.7°C 58.5°F14.7°C 94% 2.0 mph SW3.2 kmh SW 2.0 mph3.2 kmh 30.14 in1020.7 mb - 0.00 in0.0 mm 0.38 in9.7 mm
08:02 AM 60.3°F15.7°C 58.5°F14.7°C 94% 2.0 mph SW3.2 kmh SW 2.0 mph3.2 kmh 30.14 in1020.7 mb - 0.00 in0.0 mm 0.38 in9.7 mm
07:57 AM 60.1°F15.6°C 58.3°F14.6°C 94% 0.9 mph SW1.4 kmh SW 2.0 mph3.2 kmh 30.14 in1020.7 mb - 0.00 in0.0 mm 0.38 in9.7 mm
07:52 AM 60.1°F15.6°C 58.3°F14.6°C 94% 0.9 mph W1.4 kmh W 0.9 mph1.4 kmh 30.14 in1020.7 mb - 0.00 in0.0 mm 0.38 in9.7 mm
07:47 AM 60.1°F15.6°C 58.6°F14.8°C 95% 2.0 mph SW3.2 kmh SW 2.0 mph3.2 kmh 30.13 in1020.3 mb - 0.00 in0.0 mm 0.38 in9.7 mm
07:42 AM 59.7°F15.4°C 57.9°F14.4°C 94% 2.0 mph WSW3.2 kmh WSW -- 30.13 in1020.3 mb - 0.00 in0.0 mm 0.38 in9.7 mm
07:37 AM 59.5°F15.3°C 57.7°F14.3°C 94% 2.0 mph SW3.2 kmh SW 2.9 mph4.7 kmh 30.13 in1020.3 mb - 0.00 in0.0 mm 0.38 in9.7 mm
07:32 AM 59.5°F15.3°C 57.7°F14.3°C 94% 2.0 mph SW3.2 kmh SW 2.0 mph3.2 kmh 30.13 in1020.3 mb - 0.00 in0.0 mm 0.38 in9.7 mm
07:27 AM 59.4°F15.2°C 57.6°F14.2°C 94% 2.0 mph SW3.2 kmh SW 2.0 mph3.2 kmh 30.13 in1020.3 mb - 0.00 in0.0 mm 0.38 in9.7 mm
07:22 AM 59.4°F15.2°C 57.6°F14.2°C 94% 2.0 mph SW3.2 kmh SW -- 30.13 in1020.3 mb - 0.00 in0.0 mm 0.38 in9.7 mm
07:17 AM 59.2°F15.1°C 57.4°F14.1°C 94% 0.9 mph SW1.4 kmh SW 2.0 mph3.2 kmh 30.13 in1020.3 mb - 0.00 in0.0 mm 0.38 in9.7 mm
07:12 AM 59.2°F15.1°C 57.4°F14.1°C 94% 2.0 mph WSW3.2 kmh WSW 0.9 mph1.4 kmh 30.13 in1020.3 mb - 0.00 in0.0 mm 0.38 in9.7 mm
07:07 AM 59.0°F15.0°C 57.2°F14.0°C 94% 0.9 mph SW1.4 kmh SW 0.9 mph1.4 kmh 30.13 in1020.3 mb - 0.00 in0.0 mm 0.38 in9.7 mm
07:02 AM 58.8°F14.9°C 57.0°F13.9°C 94% 0.9 mph WSW1.4 kmh WSW 0.9 mph1.4 kmh 30.12 in1020.0 mb - 0.00 in0.0 mm 0.38 in9.7 mm
06:57 AM 58.8°F14.9°C 57.0°F13.9°C 94% 0.9 mph WSW1.4 kmh WSW 0.9 mph1.4 kmh 30.12 in1020.0 mb - 0.00 in0.0 mm 0.38 in9.7 mm
06:52 AM 58.8°F14.9°C 57.0°F13.9°C 94% 0.9 mph WSW1.4 kmh WSW -- 30.12 in1020.0 mb - 0.00 in0.0 mm 0.38 in9.7 mm
06:47 AM 58.6°F14.8°C 56.8°F13.8°C 94% 0.9 mph WSW1.4 kmh WSW 2.0 mph3.2 kmh 30.13 in1020.3 mb - 0.00 in0.0 mm 0.38 in9.7 mm
06:42 AM 58.8°F14.9°C 57.0°F13.9°C 94% 0.9 mph WSW1.4 kmh WSW 2.0 mph3.2 kmh 30.12 in1020.0 mb - 0.00 in0.0 mm 0.38 in9.7 mm
06:37 AM 58.8°F14.9°C 57.0°F13.9°C 94% 0.9 mph WSW1.4 kmh WSW 2.0 mph3.2 kmh 30.12 in1020.0 mb - 0.04 in1.0 mm 0.38 in9.7 mm
06:32 AM 58.8°F14.9°C 57.0°F13.9°C 94% 0.9 mph WSW1.4 kmh WSW -- 30.12 in1020.0 mb - 0.05 in1.3 mm 0.38 in9.7 mm
06:27 AM 58.8°F14.9°C 57.0°F13.9°C 94% 0.9 mph WSW1.4 kmh WSW 2.0 mph3.2 kmh 30.12 in1020.0 mb - 0.05 in1.3 mm 0.38 in9.7 mm
06:22 AM 58.8°F14.9°C 57.0°F13.9°C 94% 0.9 mph WSW1.4 kmh WSW 0.9 mph1.4 kmh 30.12 in1020.0 mb - 0.05 in1.3 mm 0.37 in9.4 mm
06:17 AM 58.8°F14.9°C 57.0°F13.9°C 94% 2.0 mph WSW3.2 kmh WSW 0.9 mph1.4 kmh 30.12 in1020.0 mb - 0.06 in1.5 mm 0.37 in9.4 mm
06:12 AM 58.8°F14.9°C 57.0°F13.9°C 94% 2.0 mph WSW3.2 kmh WSW 0.9 mph1.4 kmh 30.12 in1020.0 mb - 0.06 in1.5 mm 0.36 in9.1 mm
06:07 AM 58.8°F14.9°C 57.0°F13.9°C 94% 2.0 mph W3.2 kmh W 0.9 mph1.4 kmh 30.12 in1020.0 mb - 0.00 in0.0 mm 0.36 in9.1 mm
03:42 AM 59.0°F15.0°C 57.0°F13.9°C 93% Calm Calm -- 30.09 in1019.0 mb - 0.05 in1.3 mm 0.24 in6.1 mm
03:37 AM 59.0°F15.0°C 57.0°F13.9°C 93% Calm Calm -- 30.09 in1019.0 mb - 0.07 in1.8 mm 0.24 in6.1 mm
03:32 AM 59.2°F15.1°C 57.2°F14.0°C 93% Calm Calm -- 30.09 in1019.0 mb - 0.07 in1.8 mm 0.23 in5.8 mm
03:27 AM 59.2°F15.1°C 56.8°F13.8°C 92% 0.9 mph S1.4 kmh S -- 30.09 in1019.0 mb - 0.10 in2.5 mm 0.23 in5.8 mm
03:22 AM 59.2°F15.1°C 56.8°F13.8°C 92% 2.0 mph S3.2 kmh S -- 30.09 in1019.0 mb - 0.10 in2.5 mm 0.22 in5.6 mm
03:17 AM 59.2°F15.1°C 56.8°F13.8°C 92% 2.0 mph SSW3.2 kmh SSW 2.9 mph4.7 kmh 30.09 in1019.0 mb - 0.14 in3.6 mm 0.21 in5.3 mm
03:12 AM 59.2°F15.1°C 56.8°F13.8°C 92% 0.9 mph WSW1.4 kmh WSW 0.9 mph1.4 kmh 30.09 in1019.0 mb - 0.09 in2.3 mm 0.20 in5.1 mm
03:07 AM 59.2°F15.1°C 56.8°F13.8°C 92% 0.9 mph WSW1.4 kmh WSW 0.9 mph1.4 kmh 30.09 in1019.0 mb - 0.12 in3.0 mm 0.19 in4.8 mm
03:02 AM 59.2°F15.1°C 56.8°F13.8°C 92% 0.9 mph WSW1.4 kmh WSW -- 30.08 in1018.6 mb - 0.07 in1.8 mm 0.18 in4.6 mm
02:57 AM 59.2°F15.1°C 56.8°F13.8°C 92% 2.0 mph WSW3.2 kmh WSW 0.9 mph1.4 kmh 30.08 in1018.6 mb - 0.09 in2.3 mm 0.18 in4.6 mm
02:52 AM 59.2°F15.1°C 56.8°F13.8°C 92% 4.0 mph WSW6.4 kmh WSW 4.0 mph6.4 kmh 30.08 in1018.6 mb - 0.09 in2.3 mm 0.17 in4.3 mm
02:47 AM 59.2°F15.1°C 56.8°F13.8°C 92% 4.0 mph W6.4 kmh W 2.0 mph3.2 kmh 30.07 in1018.3 mb - 0.10 in2.5 mm 0.16 in4.1 mm
02:42 AM 59.2°F15.1°C 56.8°F13.8°C 92% 4.9 mph WSW7.9 kmh WSW 4.0 mph6.4 kmh 30.06 in1017.9 mb - 0.14 in3.6 mm 0.16 in4.1 mm
02:37 AM 59.2°F15.1°C 56.5°F13.6°C 91% 4.9 mph NW7.9 kmh NW 2.9 mph4.7 kmh 30.06 in1017.9 mb - 0.15 in3.8 mm 0.14 in3.6 mm
02:32 AM 59.4°F15.2°C 56.7°F13.7°C 91% 4.0 mph WSW6.4 kmh WSW 6.9 mph11.1 kmh 30.06 in1017.9 mb - 0.28 in7.1 mm 0.12 in3.0 mm
02:27 AM 59.4°F15.2°C 56.7°F13.7°C 91% 4.0 mph WNW6.4 kmh WNW 6.0 mph9.7 kmh 30.06 in1017.9 mb - 0.31 in7.9 mm 0.10 in2.5 mm
02:22 AM 59.5°F15.3°C 56.7°F13.7°C 90% 4.9 mph N7.9 kmh N 2.0 mph3.2 kmh 30.06 in1017.9 mb - 0.29 in7.4 mm 0.08 in2.0 mm
02:17 AM 59.5°F15.3°C 56.7°F13.7°C 90% 4.9 mph W7.9 kmh W 2.9 mph4.7 kmh 30.06 in1017.9 mb - 0.26 in6.6 mm 0.05 in1.3 mm
02:12 AM 59.7°F15.4°C 56.5°F13.6°C 89% 4.9 mph WNW7.9 kmh WNW 6.9 mph11.1 kmh 30.06 in1017.9 mb - 0.00 in0.0 mm 0.04 in1.0 mm
02:07 AM 59.7°F15.4°C 56.5°F13.6°C 89% 6.9 mph W11.1 kmh W 8.9 mph14.3 kmh 30.06 in1017.9 mb - 0.00 in0.0 mm 0.04 in1.0 mm
02:02 AM 59.9°F15.5°C 56.7°F13.7°C 89% 6.9 mph W11.1 kmh W 6.9 mph11.1 kmh 30.06 in1017.9 mb - 0.00 in0.0 mm 0.04 in1.0 mm
01:57 AM 60.1°F15.6°C 56.8°F13.8°C 89% 6.0 mph W9.7 kmh W 2.9 mph4.7 kmh 30.06 in1017.9 mb - 0.00 in0.0 mm 0.04 in1.0 mm
01:52 AM 60.1°F15.6°C 56.8°F13.8°C 89% 4.9 mph NW7.9 kmh NW 8.1 mph13.0 kmh 30.06 in1017.9 mb - 0.00 in0.0 mm 0.03 in0.8 mm
01:47 AM 60.3°F15.7°C 57.0°F13.9°C 89% 4.0 mph WNW6.4 kmh WNW 2.9 mph4.7 kmh 30.06 in1017.9 mb - 0.00 in0.0 mm 0.03 in0.8 mm
01:42 AM 60.4°F15.8°C 56.8°F13.8°C 88% 4.0 mph W6.4 kmh W 2.9 mph4.7 kmh 30.06 in1017.9 mb - 0.00 in0.0 mm 0.03 in0.8 mm
01:37 AM 60.6°F15.9°C 57.0°F13.9°C 88% 4.0 mph WNW6.4 kmh WNW 4.0 mph6.4 kmh 30.06 in1017.9 mb - 0.00 in0.0 mm 0.03 in0.8 mm
01:32 AM 60.8°F16.0°C 57.2°F14.0°C 88% 4.9 mph W7.9 kmh W 4.0 mph6.4 kmh 30.06 in1017.9 mb - 0.04 in1.0 mm 0.02 in0.5 mm
01:27 AM 61.0°F16.1°C 57.4°F14.1°C 88% 4.9 mph SE7.9 kmh SE 2.9 mph4.7 kmh 30.06 in1017.9 mb - 0.05 in1.3 mm 0.02 in0.5 mm
01:22 AM 61.2°F16.2°C 57.2°F14.0°C 87% 4.9 mph WNW7.9 kmh WNW 8.1 mph13.0 kmh 30.06 in1017.9 mb - 0.06 in1.5 mm 0.02 in0.5 mm
01:17 AM 61.5°F16.4°C 57.6°F14.2°C 87% 4.0 mph W6.4 kmh W 8.1 mph13.0 kmh 30.05 in1017.6 mb - 0.06 in1.5 mm 0.01 in0.3 mm
01:12 AM 61.9°F16.6°C 57.6°F14.2°C 86% 4.0 mph WSW6.4 kmh WSW 6.9 mph11.1 kmh 30.05 in1017.6 mb - 0.00 in0.0 mm 0.01 in0.3 mm
01:07 AM 62.1°F16.7°C 57.6°F14.2°C 85% 4.0 mph W6.4 kmh W 10.1 mph16.3 kmh 30.05 in1017.6 mb - 0.00 in0.0 mm 0.00 in0.0 mm
01:02 AM 62.2°F16.8°C 57.7°F14.3°C 85% 4.9 mph SW7.9 kmh SW 4.9 mph7.9 kmh 30.05 in1017.6 mb - 0.00 in0.0 mm 0.00 in0.0 mm
12:57 AM 62.4°F16.9°C 57.6°F14.2°C 84% 6.0 mph WSW9.7 kmh WSW 2.9 mph4.7 kmh 30.05 in1017.6 mb - 0.00 in0.0 mm 0.00 in0.0 mm
12:52 AM 63.0°F17.2°C 57.4°F14.1°C 82% 6.9 mph WNW11.1 kmh WNW 2.9 mph4.7 kmh 30.05 in1017.6 mb - 0.00 in0.0 mm 0.00 in0.0 mm
12:47 AM 63.3°F17.4°C 57.4°F14.1°C 81% 6.0 mph W9.7 kmh W 10.1 mph16.3 kmh 30.05 in1017.6 mb - 0.00 in0.0 mm 0.00 in0.0 mm
12:42 AM 64.0°F17.8°C 57.4°F14.1°C 79% 4.9 mph W7.9 kmh W 6.9 mph11.1 kmh 30.05 in1017.6 mb - 0.00 in0.0 mm 0.00 in0.0 mm
12:37 AM 64.6°F18.1°C 57.2°F14.0°C 77% 4.0 mph W6.4 kmh W 2.9 mph4.7 kmh 30.05 in1017.6 mb - 0.00 in0.0 mm 0.00 in0.0 mm
12:32 AM 65.1°F18.4°C 57.4°F14.1°C 76% 4.0 mph W6.4 kmh W 2.9 mph4.7 kmh 30.05 in1017.6 mb - 0.00 in0.0 mm 0.00 in0.0 mm
12:27 AM 65.5°F18.6°C 57.0°F13.9°C 74% 4.0 mph WSW6.4 kmh WSW 4.0 mph6.4 kmh 30.05 in1017.6 mb - 0.00 in0.0 mm 0.00 in0.0 mm
12:22 AM 65.8°F18.8°C 57.0°F13.9°C 73% 2.0 mph W3.2 kmh W 2.0 mph3.2 kmh 30.05 in1017.6 mb - 0.00 in0.0 mm 0.00 in0.0 mm
12:17 AM 66.0°F18.9°C 56.7°F13.7°C 72% 2.0 mph WSW3.2 kmh WSW 2.9 mph4.7 kmh 30.05 in1017.6 mb - 0.00 in0.0 mm 0.00 in0.0 mm
12:12 AM 66.0°F18.9°C 56.3°F13.5°C 71% 2.9 mph WSW4.7 kmh WSW 2.0 mph3.2 kmh 30.05 in1017.6 mb - 0.00 in0.0 mm 0.00 in0.0 mm
12:07 AM 66.2°F19.0°C 56.5°F13.6°C 71% 4.0 mph SW6.4 kmh SW 2.0 mph3.2 kmh 30.04 in1017.3 mb - 0.00 in0.0 mm 0.00 in0.0 mm
12:02 AM 66.2°F19.0°C 56.5°F13.6°C 71% 2.9 mph W4.7 kmh W 4.0 mph6.4 kmh 30.04 in1017.3 mb - 0.00 in0.0 mm 0.00 in0.0 mm